Sarajevo, Bosnia and Herzegovina
Current Conditions -  °F | °C
As of 4:00 PM on Sunday 25 Jan 2015 (Local Time) from LQSA Reporting Station
Light Snow Light Snow  
Wind Chill: -4°   Ceiling: 3000
Heat Index:   Visibility: 2.1mi
Dew Point: -1°   Wind: 7mph
Humidity: 93%   Direction: 290°WNW
Pressure: 30"   Gusts: NA
Location:  43.85°N, 18.38°E
Report Text: LQSA 251400Z 29006KT 260V320 3500 -SN BR FEW008 SCT015 BKN030M00/M01 Q1016 NOSIG
Loading
Personal Weather Stations






























Interactive Weather Map New forecast layout! Learn more

10-Day Weather Forecast

Advertisements
Track Severe Weather on mobile